Flight Track Log - Related Links

Times and Time Zones

All times are in EDT time to prevent confusion due to time zone crossing. See the ASQ5869 flight status page for this flight to view local times or setup timezone preferences in your user account.

Time Position Orientation Groundspeed Altitude Reporting Facility
EDT Latitude Longitude Course Direction KTS MPH feet Rate Location/Type
Fri 11:37:55 AM 41.9000 -87.9000 180° South 178 205 3,700  Level Chicago TRACON
Fri 11:38:55 AM 41.8500 -87.9000 180° South 219 252 5,100 1,304 Climbing Chicago TRACON
Fri 11:39:27 AM 41.8222 -87.9122 198° South 207 238 5,700 1,723 Climbing Chicago Center
Fri 11:40:29 AM 41.7556 -87.9306 192° South 243 280 7,800 2,274 Climbing Chicago Center
Fri 11:41:31 AM 41.6739 -87.9536 192° South 249 287 10,400 2,081 Climbing Chicago Center
Fri 11:42:33 AM 41.6025 -87.9739 192° South 261 300 12,100 1,210 Climbing Chicago Center
Fri 11:43:00 AM 41.4660 -88.2479 180° South  Level Estimated
Fri 11:43:35 AM 41.5261 -87.9958 192° South 280 322 12,900  Level Chicago Center
Fri 11:44:36 AM 41.4319 -88.0233 192° South 311 358 13,900 976 Climbing Chicago Center
Fri 11:45:38 AM 41.3475 -88.0506 194° South 317 365 14,900 968 Climbing Chicago Center
Fri 11:46:40 AM 41.2558 -88.0811 194° South 333 383 15,900 968 Climbing Chicago Center
Fri 11:47:42 AM 41.1625 -88.1081 192° South 342 394 16,900 878 Climbing Chicago Center
Fri 11:48:43 AM 41.0678 -88.1361 193° South 347 399 17,700 976 Climbing Chicago Center
Fri 11:49:45 AM 40.9761 -88.1831 201° Southwest 354 407 18,900 1,065 Climbing Chicago Center
Fri 11:50:47 AM 40.8683 -88.2594 208° Southwest 363 418 19,900 927 Climbing Chicago Center
Fri 11:51:48 AM 40.7783 -88.3233 208° Southwest 367 422 20,800 927 Climbing Chicago Center
Fri 11:52:50 AM 40.6881 -88.3864 208° Southwest 368 423 21,800 968 Climbing Chicago Center
Fri 11:53:52 AM 40.5986 -88.4522 209° Southwest 369 425 22,800 968 Climbing Chicago Center
Fri 11:54:54 AM 40.5075 -88.5128 207° Southwest 368 423 23,800 1,073 Climbing Chicago Center
Fri 11:55:55 AM 40.4117 -88.5819 209° Southwest 366 421 25,000 1,268 Climbing Chicago Center
Fri 11:56:57 AM 40.3244 -88.6406 207° Southwest 354 407 26,400 1,355 Climbing Chicago Center
Fri 11:57:59 AM 40.2417 -88.6992 208° Southwest 341 392 27,800 1,317 Climbing Chicago Center
Fri 11:59:00 AM 40.1628 -88.7522 207° Southwest 327 376 29,100 1,279 Climbing Chicago Center
Fri 12:00:01 PM 40.0831 -88.8086 208° Southwest 318 366 30,400 1,306 Climbing Kansas City Center
Fri 12:01:04 PM 40.0092 -88.8597 208° Southwest 306 352 31,800 1,210 Climbing Kansas City Center
Fri 12:02:05 PM 39.9367 -88.9106 208° Southwest 299 344 32,900 1,104 Climbing Kansas City Center
Fri 12:03:09 PM 39.8489 -88.9700 207° Southwest 296 341 34,100 968 Climbing Kansas City Center
Fri 12:04:09 PM 39.7781 -89.0197 208° Southwest 291 335 34,900 624 Climbing Kansas City Center
Fri 12:05:14 PM 39.7064 -89.0683 208° Southwest 290 334 35,400 480 Climbing Kansas City Center
Fri 12:06:14 PM 39.6342 -89.1181 208° Southwest 292 336 35,900 295 Climbing Kansas City Center
Fri 12:07:16 PM 39.5603 -89.1675 207° Southwest 296 341 36,000 49 Climbing Kansas City Center
Fri 12:08:17 PM 39.4814 -89.2225 208° Southwest 312 359 36,000  Level Kansas City Center
Fri 12:09:20 PM 39.3958 -89.2794 207° Southwest 325 374 36,000  Level Kansas City Center
Fri 12:10:21 PM 39.3117 -89.3364 208° Southwest 337 388 36,000  Level Kansas City Center
Fri 12:11:24 PM 39.2083 -89.4078 208° Southwest 348 400 36,000  Level Kansas City Center
Fri 12:12:26 PM 39.1211 -89.4650 207° Southwest 351 404 36,000  Level Kansas City Center
Fri 12:13:27 PM 39.0342 -89.5228 207° Southwest 351 404 36,000  Level Kansas City Center
Fri 12:15:00 PM 38.9050 -89.6155 209° Southwest  Level FlightAware Approximate
Fri 12:15:31 PM 38.8617 -89.6381 209° Southwest 349 402 36,000  Level Kansas City Center
Fri 12:16:35 PM 38.7764 -89.6953 208° Southwest 347 399 36,000  Level Kansas City Center
Fri 12:17:36 PM 38.6733 -89.7628 207° Southwest 345 397 36,000  Level Kansas City Center
Fri 12:18:38 PM 38.5881 -89.8208 208° Southwest 345 397 36,000  Level Kansas City Center
Fri 12:19:41 PM 38.5022 -89.8761 207° Southwest 345 397 36,000  Level Kansas City Center
Fri 12:20:41 PM 38.4161 -89.9331 207° Southwest 345 397 36,000  Level Kansas City Center
Fri 12:21:45 PM 38.3306 -89.9889 207° Southwest 345 397 36,000  Level Kansas City Center
Fri 12:22:46 PM 38.2447 -90.0458 208° Southwest 345 397 36,000  Level Kansas City Center
Fri 12:23:49 PM 38.1564 -90.1019 207° Southwest 349 402 36,000  Level Kansas City Center
Fri 12:24:51 PM 38.0694 -90.1586 207° Southwest 350 403 36,000  Level Kansas City Center
Fri 12:25:51 PM 37.9658 -90.2261 207° Southwest 350 403 36,000  Level Kansas City Center
Fri 12:26:55 PM 37.8800 -90.2822 207° Southwest 348 400 36,000  Level Kansas City Center
Fri 12:27:55 PM 37.7947 -90.3392 208° Southwest 347 399 36,000  Level Kansas City Center
Fri 12:28:59 PM 37.7094 -90.3947 207° Southwest 346 398 36,000  Level Kansas City Center
Fri 12:30:00 PM 37.6225 -90.4483 206° Southwest 347 399 36,000  Level Kansas City Center
Fri 12:31:03 PM 37.5350 -90.5058 208° Southwest 352 405 36,000  Level Kansas City Center
Fri 12:32:04 PM 37.4275 -90.5739 207° Southwest 359 413 36,000  Level Kansas City Center
Fri 12:32:41 PM 37.3672 -90.6125 207° Southwest 352 405 36,000  Level Memphis Center
Fri 12:33:41 PM 37.2753 -90.6750 208° Southwest 365 420 36,000  Level Memphis Center
Fri 12:34:41 PM 37.1814 -90.7344 207° Southwest 376 433 36,000  Level Memphis Center
Fri 12:35:41 PM 37.0833 -90.7936 206° Southwest 381 438 36,000  Level Memphis Center
Fri 12:36:41 PM 36.9914 -90.8531 207° Southwest 388 447 36,000 -250 Level Memphis Center
Fri 12:37:41 PM 36.8975 -90.9094 206° Southwest 388 447 35,500 -700 Descending Memphis Center
Fri 12:38:41 PM 36.8075 -90.9683 208° Southwest 383 441 34,600 -950 Descending Memphis Center
Fri 12:39:41 PM 36.7156 -91.0222 205° Southwest 377 434 33,600 -1,050 Descending Memphis Center
Fri 12:40:41 PM 36.6319 -91.0783 208° Southwest 365 420 32,500 -1,100 Descending Memphis Center
Fri 12:41:41 PM 36.5567 -91.1242 206° Southwest 350 403 31,400 -1,600 Descending Memphis Center
Fri 12:42:41 PM 36.4561 -91.1825 205° Southwest 352 405 29,300 -2,000 Descending Memphis Center
Fri 12:43:41 PM 36.3681 -91.2383 207° Southwest 357 411 27,400 -1,750 Descending Memphis Center
Fri 12:44:41 PM 36.2761 -91.2942 206° Southwest 363 418 25,800 -1,500 Descending Memphis Center
Fri 12:45:41 PM 36.1861 -91.3494 206° Southwest 363 418 24,400 -900 Descending Memphis Center
Fri 12:46:41 PM 36.0939 -91.4025 205° Southwest 363 418 24,000 -200 Descending Memphis Center
Fri 12:47:41 PM 36.0017 -91.4603 207° Southwest 363 418 24,000  Level Memphis Center
Fri 12:48:41 PM 35.9219 -91.5156 209° Southwest 368 423 24,000 -950 Level Memphis Center
Fri 12:49:41 PM 35.8275 -91.5681 204° Southwest 368 423 22,100 -2,100 Descending Memphis Center
Fri 12:50:41 PM 35.7372 -91.6231 206° Southwest 368 423 19,800 -2,150 Descending Memphis Center
Fri 12:51:41 PM 35.6511 -91.6753 206° Southwest 363 418 17,800 -1,944 Descending Memphis Center
Fri 12:53:03 PM 35.5253 -91.7500 206° Southwest 347 399 15,200 -1,887 Descending Memphis Center
Fri 12:53:45 PM 35.4644 -91.7897 208° Southwest 345 397 13,900 -1,794 Descending Memphis Center
Fri 12:54:40 PM 35.3844 -91.8367 206° Southwest 324 373 12,300 -1,670 Descending Memphis Center
Fri 12:55:40 PM 35.3089 -91.8811 206° Southwest 310 357 10,700 -1,438 Descending Memphis Center
Fri 12:56:41 PM 35.2394 -91.9231 206° Southwest 268 308 9,400 -1,289 Descending Memphis Center
Fri 12:57:41 PM 35.1786 -91.9600 206° Southwest 290 334 8,100 -1,400 Descending Memphis Center
Fri 12:58:41 PM 35.1033 -91.9739 189° South 277 319 6,600 -1,350 Descending Memphis Center
Fri 12:59:41 PM 35.0303 -91.9853 187° South 267 307 5,400 -1,000 Descending Memphis Center
Fri 01:00:41 PM 34.9611 -91.9967 188° South 260 299 4,600 -850 Descending Memphis Center
Fri 01:01:41 PM 34.8964 -92.0106 190° South 255 293 3,700 -768 Descending Memphis Center
Fri 01:02:46 PM 34.8372 -92.0575 213° Southwest 214 246 3,000 -600 Descending Memphis Center
Fri 01:03:41 PM 34.8075 -92.1047 233° Southwest 220 253 2,500 -678 Descending Memphis Center
Fri 01:04:41 PM 34.7819 -92.1422 230° Southwest 190 219 1,700 -600 Descending Memphis Center
Fri 01:05:41 PM 34.7372 -92.1919 222° Southwest 183 211 1,300 -400 Descending Memphis Center

Login

Don't have an account? Register now (free) for customized features, flight alerts, and more!